createdAt,value
2019-03-10T00:01:34.100Z,98457.58
2019-03-10T00:04:04.634Z,98469.82
2019-03-10T00:06:35.053Z,98470.31
2019-03-10T00:09:06.623Z,98503.38
2019-03-10T00:11:37.013Z,98522.63
2019-03-10T00:14:07.668Z,98532.69
2019-03-10T00:16:38.193Z,98524.98
2019-03-10T00:19:08.613Z,98549.72
2019-03-10T00:21:39.146Z,98549.05
2019-03-10T00:24:10.107Z,98544.81
2019-03-10T00:26:40.561Z,98572.12
2019-03-10T00:29:11.055Z,98576.83
2019-03-10T00:31:41.538Z,98580.86
2019-03-10T00:34:12.121Z,98598.13
2019-03-10T00:36:42.729Z,98607.39
2019-03-10T00:39:47.936Z,98603.27
2019-03-10T00:43:15.884Z,98604.06
2019-03-10T00:46:42.103Z,98623.20
2019-03-10T00:50:02.054Z,98644.86
2019-03-10T00:52:39.546Z,98664.26
2019-03-10T00:55:10.123Z,98661.77
2019-03-10T00:57:40.571Z,98671.11
2019-03-10T01:00:17.589Z,98689.62
2019-03-10T01:02:48.060Z,98692.50
2019-03-10T01:05:19.119Z,98692.88
2019-03-10T01:07:49.723Z,98702.03
2019-03-10T01:10:20.289Z,98694.98
2019-03-10T01:12:50.825Z,98711.14
2019-03-10T01:15:21.397Z,98701.20
2019-03-10T01:17:53.199Z,98718.41
2019-03-10T01:20:23.748Z,98728.70
2019-03-10T01:22:54.319Z,98732.90
2019-03-10T01:25:25.396Z,98737.44
2019-03-10T01:27:55.999Z,98739.09
2019-03-10T01:30:26.623Z,98742.55
2019-03-10T01:33:47.793Z,98731.66
2019-03-10T01:36:16.210Z,98736.49
2019-03-10T01:38:46.883Z,98740.58
2019-03-10T01:41:17.412Z,98738.39
2019-03-10T01:43:47.792Z,98739.81
2019-03-10T01:46:18.223Z,98740.67
2019-03-10T01:48:48.740Z,98743.23
2019-03-10T01:51:19.303Z,98732.89
2019-03-10T01:53:49.977Z,98728.73
2019-03-10T01:56:20.477Z,98736.02
2019-03-10T01:58:51.211Z,98717.95
2019-03-10T02:01:21.646Z,98734.42
2019-03-10T02:03:52.047Z,98737.75
2019-03-10T02:06:22.499Z,98738.08
2019-03-10T02:08:52.847Z,98724.33
2019-03-10T02:11:23.413Z,98726.23
2019-03-10T02:13:53.843Z,98724.22
2019-03-10T02:16:24.313Z,98723.69
2019-03-10T02:18:54.843Z,98722.84
2019-03-10T02:21:25.388Z,98728.28
2019-03-10T02:23:55.772Z,98719.11
2019-03-10T02:26:26.128Z,98712.58
2019-03-10T02:28:56.633Z,98704.53
2019-03-10T02:31:27.014Z,98704.96
2019-03-10T02:33:57.489Z,98712.84
2019-03-10T02:36:28.005Z,98709.96
2019-03-10T02:38:58.400Z,98698.09
2019-03-10T02:41:28.888Z,98699.05
2019-03-10T02:43:59.338Z,98704.47
2019-03-10T02:46:29.657Z,98706.13
2019-03-10T02:49:00.234Z,98709.57
2019-03-10T02:51:30.743Z,98710.70
2019-03-10T02:54:01.346Z,98701.16
2019-03-10T02:56:31.748Z,98703.58
2019-03-10T02:59:02.173Z,98702.30
2019-03-10T03:01:32.685Z,98701.38
2019-03-10T03:04:03.119Z,98701.59
2019-03-10T03:06:33.523Z,98699.56
2019-03-10T03:09:04.374Z,98703.30
2019-03-10T03:11:34.801Z,98710.28
2019-03-10T03:14:05.271Z,98698.63
2019-03-10T03:16:35.858Z,98705.91
2019-03-10T03:19:06.374Z,98709.57
2019-03-10T03:21:43.205Z,98719.20
2019-03-10T03:24:08.956Z,98708.22
2019-03-10T03:26:39.311Z,98718.45
2019-03-10T03:29:09.893Z,98737.91
2019-03-10T03:31:59.444Z,98730.67
2019-03-10T03:34:29.864Z,98726.31
2019-03-10T03:37:00.497Z,98721.16
2019-03-10T03:39:44.905Z,98726.20
2019-03-10T03:42:15.456Z,98727.73
2019-03-10T03:44:45.834Z,98716.66
2019-03-10T03:47:16.416Z,98715.01
2019-03-10T03:49:47.064Z,98721.51
2019-03-10T03:52:17.584Z,98719.97
2019-03-10T03:54:48.024Z,98718.95
2019-03-10T03:57:18.497Z,98723.30
2019-03-10T03:59:48.969Z,98727.29
2019-03-10T04:02:38.307Z,98722.75
2019-03-10T04:05:09.837Z,98718.16
2019-03-10T04:07:40.656Z,98710.50
2019-03-10T04:10:11.224Z,98712.08
2019-03-10T04:12:41.827Z,98711.73
2019-03-10T04:15:12.409Z,98703.44
2019-03-10T04:17:42.828Z,98714.56
2019-03-10T04:20:13.705Z,98711.14
2019-03-10T04:22:44.087Z,98708.97
2019-03-10T04:25:15.268Z,98705.13
2019-03-10T04:27:46.195Z,98699.65
2019-03-10T04:30:16.640Z,98698.00
2019-03-10T04:32:47.007Z,98695.78
2019-03-10T04:35:17.494Z,98700.81
2019-03-10T04:37:48.012Z,98690.52
2019-03-10T04:40:18.578Z,98683.88
2019-03-10T04:42:48.927Z,98676.89
2019-03-10T04:45:19.473Z,98688.76
2019-03-10T04:47:49.933Z,98681.89
2019-03-10T04:50:20.330Z,98684.44
2019-03-10T04:52:50.853Z,98689.58
2019-03-10T04:55:40.264Z,98686.92
2019-03-10T04:58:13.108Z,98677.34
2019-03-10T05:00:45.828Z,98684.70
2019-03-10T05:03:16.324Z,98677.05
2019-03-10T05:05:47.433Z,98690.67
2019-03-10T05:08:17.937Z,98683.69
2019-03-10T05:10:48.427Z,98693.11
2019-03-10T05:13:19.002Z,98692.85
2019-03-10T05:15:49.523Z,98691.80
2019-03-10T05:18:19.933Z,98682.30
2019-03-10T05:20:50.853Z,98672.58
2019-03-10T05:23:43.978Z,98674.86
2019-03-10T05:26:16.343Z,98674.08
2019-03-10T05:28:50.392Z,98674.56
2019-03-10T05:31:21.143Z,98681.69
2019-03-10T05:33:51.717Z,98682.77
2019-03-10T05:36:22.233Z,98694.11
2019-03-10T05:38:52.719Z,98693.70
2019-03-10T05:41:24.563Z,98686.35
2019-03-10T05:43:55.063Z,98678.34
2019-03-10T05:46:25.747Z,98683.38
2019-03-10T05:48:56.343Z,98686.79
2019-03-10T05:51:26.842Z,98681.05
2019-03-10T05:53:57.282Z,98677.47
2019-03-10T05:56:27.896Z,98668.13
2019-03-10T05:58:58.338Z,98669.28
2019-03-10T06:01:28.973Z,98673.17
2019-03-10T06:03:59.452Z,98670.14
2019-03-10T06:06:29.985Z,98676.16
2019-03-10T06:09:00.462Z,98672.14
2019-03-10T06:11:30.834Z,98672.77
2019-03-10T06:14:01.283Z,98685.12
2019-03-10T06:16:31.903Z,98665.78
2019-03-10T06:19:02.333Z,98671.62
2019-03-10T06:21:32.764Z,98680.90
2019-03-10T06:24:03.208Z,98680.47
2019-03-10T06:26:33.932Z,98688.28
2019-03-10T06:29:04.471Z,98688.55
2019-03-10T06:31:35.037Z,98684.53
2019-03-10T06:34:05.629Z,98678.12
2019-03-10T06:36:36.223Z,98681.79
2019-03-10T06:39:07.805Z,98676.30
2019-03-10T06:41:38.416Z,98671.48
2019-03-10T06:44:09.014Z,98672.30
2019-03-10T06:46:39.513Z,98669.98
2019-03-10T06:49:10.023Z,98674.14
2019-03-10T06:51:41.054Z,98674.58
2019-03-10T06:54:11.526Z,98682.70
2019-03-10T06:56:42.027Z,98676.91
2019-03-10T06:59:12.629Z,98679.67
2019-03-10T07:01:44.173Z,98680.76
2019-03-10T07:04:14.804Z,98679.38
2019-03-10T07:06:45.281Z,98676.45
2019-03-10T07:09:15.765Z,98668.75
2019-03-10T07:11:46.314Z,98660.13
2019-03-10T07:14:16.977Z,98657.97
2019-03-10T07:16:47.433Z,98654.64
2019-03-10T07:19:17.816Z,98652.44
2019-03-10T07:21:48.192Z,98647.13
2019-03-10T07:24:18.762Z,98641.63
2019-03-10T07:26:49.143Z,98641.28
2019-03-10T07:29:38.475Z,98637.30
2019-03-10T07:32:17.837Z,98638.09
2019-03-10T07:35:07.233Z,98639.95
2019-03-10T07:37:48.018Z,98648.89
2019-03-10T07:40:37.403Z,98632.88
2019-03-10T07:43:19.909Z,98635.15
2019-03-10T07:46:06.333Z,98618.00
2019-03-10T07:48:55.677Z,98627.07
2019-03-10T07:51:39.742Z,98626.92
2019-03-10T07:54:29.008Z,98629.98
2019-03-10T07:57:18.472Z,98621.53
2019-03-10T08:00:07.693Z,98625.16
2019-03-10T08:02:45.429Z,98621.57
2019-03-10T08:05:29.242Z,98617.42
2019-03-10T08:08:07.715Z,98602.26
2019-03-10T08:10:57.014Z,98606.09
2019-03-10T08:13:46.408Z,98607.84
2019-03-10T08:16:35.843Z,98600.92
2019-03-10T08:19:21.875Z,98598.64
2019-03-10T08:22:12.083Z,98597.84
2019-03-10T08:25:01.364Z,98596.03
2019-03-10T08:28:00.939Z,98597.25
2019-03-10T08:30:41.823Z,98584.13
2019-03-10T08:33:28.678Z,98586.91
2019-03-10T08:36:07.345Z,98585.88
2019-03-10T08:38:55.517Z,98579.31
2019-03-10T08:41:35.615Z,98564.86
2019-03-10T08:44:21.072Z,98559.64
2019-03-10T08:46:59.653Z,98556.09
2019-03-10T08:49:47.144Z,98546.55
2019-03-10T08:52:32.673Z,98531.88
2019-03-10T08:55:18.014Z,98521.22
2019-03-10T08:58:09.067Z,98522.78
2019-03-10T09:00:52.473Z,98518.45
2019-03-10T09:03:42.133Z,98516.02
2019-03-10T09:06:31.768Z,98505.88
2019-03-10T09:09:10.557Z,98500.28
2019-03-10T09:11:59.950Z,98491.13
2019-03-10T09:14:37.709Z,98488.25
2019-03-10T09:17:27.611Z,98472.75
2019-03-10T09:20:17.064Z,98478.39
2019-03-10T09:23:06.773Z,98473.69
2019-03-10T09:25:56.206Z,98468.09
2019-03-10T09:28:41.394Z,98463.98
2019-03-10T09:31:19.788Z,98462.32
2019-03-10T09:34:09.195Z,98461.96
2019-03-10T09:36:59.276Z,98463.52
2019-03-10T09:39:38.932Z,98460.51
2019-03-10T09:42:28.411Z,98453.40
2019-03-10T09:45:17.843Z,98454.60
2019-03-10T09:48:07.169Z,98459.61
2019-03-10T09:50:56.467Z,98460.20
2019-03-10T09:53:45.922Z,98460.28
2019-03-10T09:56:35.344Z,98458.35
2019-03-10T09:59:22.297Z,98454.90
2019-03-10T10:02:04.396Z,98450.34
2019-03-10T10:04:53.663Z,98435.85
2019-03-10T10:07:35.943Z,98431.13
2019-03-10T10:10:22.776Z,98431.53
2019-03-10T10:13:12.113Z,98422.23
2019-03-10T10:16:01.504Z,98420.10
2019-03-10T10:18:46.283Z,98417.21
2019-03-10T10:21:36.231Z,98418.24
2019-03-10T10:24:25.639Z,98423.16
2019-03-10T10:27:14.989Z,98428.73
2019-03-10T10:30:04.327Z,98420.11
2019-03-10T10:32:53.778Z,98413.37
2019-03-10T10:35:43.382Z,98408.75
2019-03-10T10:38:23.571Z,98397.57
2019-03-10T10:41:07.767Z,98382.66
2019-03-10T10:43:51.203Z,98373.48
2019-03-10T10:46:40.654Z,98374.09
2019-03-10T10:49:21.730Z,98361.77
2019-03-10T10:52:08.556Z,98360.59
2019-03-10T10:54:57.959Z,98360.23
2019-03-10T10:57:37.031Z,98354.48
2019-03-10T11:00:23.888Z,98339.72
2019-03-10T11:03:13.827Z,98344.38
2019-03-10T11:06:03.192Z,98337.76
2019-03-10T11:08:48.069Z,98330.00
2019-03-10T11:11:37.458Z,98334.43
2019-03-10T11:14:26.945Z,98324.52
2019-03-10T11:17:11.478Z,98322.08
2019-03-10T11:19:50.253Z,98317.95
2019-03-10T11:22:25.603Z,98315.31
2019-03-10T11:25:14.175Z,98305.30
2019-03-10T11:27:54.077Z,98291.43
2019-03-10T11:30:41.258Z,98294.08
2019-03-10T11:33:30.843Z,98298.52
2019-03-10T11:36:12.433Z,98285.73
2019-03-10T11:39:01.813Z,98281.23
2019-03-10T11:41:45.104Z,98272.63
2019-03-10T11:44:34.501Z,98265.23
2019-03-10T11:47:13.119Z,98270.44
2019-03-10T11:49:54.365Z,98264.20
2019-03-10T11:52:44.848Z,98254.99
2019-03-10T11:55:37.368Z,98249.06
2019-03-10T11:58:26.823Z,98242.90
2019-03-10T12:01:02.584Z,98244.05
2019-03-10T12:03:46.804Z,98237.66
2019-03-10T12:06:36.363Z,98233.28
2019-03-10T12:09:15.803Z,98233.02
2019-03-10T12:11:46.393Z,98232.91
2019-03-10T12:14:17.074Z,98212.89
2019-03-10T12:16:47.723Z,98216.50
2019-03-10T12:19:18.292Z,98214.44
2019-03-10T12:21:49.354Z,98195.65
2019-03-10T12:24:21.012Z,98191.02
2019-03-10T12:26:51.761Z,98192.14
2019-03-10T12:29:22.408Z,98186.59
2019-03-10T12:31:52.956Z,98179.95
2019-03-10T12:34:23.658Z,98188.44
2019-03-10T12:36:54.243Z,98183.94
2019-03-10T12:39:25.672Z,98180.05
2019-03-10T12:41:58.757Z,98171.45
2019-03-10T12:44:30.712Z,98167.09
2019-03-10T12:47:02.090Z,98153.16
2019-03-10T12:49:32.720Z,98149.42
2019-03-10T12:52:05.761Z,98142.21
2019-03-10T12:54:39.960Z,98133.89
2019-03-10T12:57:10.693Z,98115.34
2019-03-10T12:59:41.968Z,98107.20
2019-03-10T13:02:12.569Z,98096.92
2019-03-10T13:04:45.487Z,98087.95
2019-03-10T13:07:16.333Z,98077.41
2019-03-10T13:09:47.506Z,98075.95
2019-03-10T13:12:18.138Z,98062.08
2019-03-10T13:14:59.039Z,98056.44
2019-03-10T13:17:21.109Z,98051.54
2019-03-10T13:19:51.786Z,98045.23
2019-03-10T13:22:22.493Z,98043.70
2019-03-10T13:24:53.060Z,98044.75
2019-03-10T13:27:23.707Z,98037.16
2019-03-10T13:29:55.862Z,98035.16
2019-03-10T13:32:29.660Z,98031.41
2019-03-10T13:35:00.439Z,98018.17
2019-03-10T13:37:31.124Z,98009.77
2019-03-10T13:40:01.812Z,97998.55
2019-03-10T13:42:35.452Z,97989.86
2019-03-10T13:45:06.631Z,97985.83
2019-03-10T13:47:38.797Z,97985.61
2019-03-10T13:50:13.993Z,97981.52
2019-03-10T13:52:45.873Z,97980.72
2019-03-10T13:55:18.813Z,97977.20
2019-03-10T13:57:49.468Z,97973.02
2019-03-10T14:00:23.783Z,97950.31
2019-03-10T14:02:56.907Z,97942.39
2019-03-10T14:05:32.345Z,97932.09
2019-03-10T14:08:07.146Z,97916.12
2019-03-10T14:10:46.063Z,97906.31
2019-03-10T14:13:18.553Z,97883.02
2019-03-10T14:15:52.335Z,97869.13
2019-03-10T14:18:27.038Z,97869.98
2019-03-10T14:20:58.754Z,97865.38
2019-03-10T14:23:29.449Z,97865.10
2019-03-10T14:26:00.043Z,97863.75
2019-03-10T14:28:35.045Z,97865.06
2019-03-10T14:31:05.813Z,97861.79
2019-03-10T14:33:36.571Z,97856.66
2019-03-10T14:36:07.567Z,97850.41
2019-03-10T14:38:39.439Z,97835.64
2019-03-10T14:41:10.160Z,97821.34
2019-03-10T14:43:44.042Z,97800.98
2019-03-10T14:46:14.678Z,97794.45
2019-03-10T14:48:45.520Z,97775.00
2019-03-10T14:51:22.114Z,97751.92
2019-03-10T14:53:53.623Z,97742.33
2019-03-10T14:56:25.798Z,97722.60
2019-03-10T14:58:56.314Z,97678.95
2019-03-10T15:01:30.597Z,97661.30
2019-03-10T15:04:01.264Z,97658.59
2019-03-10T15:06:38.438Z,97657.88
2019-03-10T15:09:09.974Z,97677.44
2019-03-10T15:11:41.028Z,97676.31
2019-03-10T15:14:13.757Z,97685.73
2019-03-10T15:16:44.430Z,97692.25
2019-03-10T15:19:15.278Z,97670.78
2019-03-10T15:21:50.100Z,97664.19
2019-03-10T15:24:23.098Z,97644.34
2019-03-10T15:26:55.057Z,97625.08
2019-03-10T15:29:25.648Z,97610.13
2019-03-10T15:31:57.379Z,97601.80
2019-03-10T15:34:34.918Z,97607.96
2019-03-10T15:37:07.944Z,97602.92
2019-03-10T15:39:52.914Z,97600.63
2019-03-10T15:42:23.592Z,97609.77
2019-03-10T15:44:58.082Z,97606.58
2019-03-10T15:47:34.566Z,97599.20
2019-03-10T15:50:07.651Z,97590.39
2019-03-10T15:52:38.517Z,97594.08
2019-03-10T15:55:11.835Z,97581.04
2019-03-10T15:57:50.487Z,97580.97
2019-03-10T16:00:23.401Z,97583.05
2019-03-10T16:02:56.523Z,97585.97
2019-03-10T16:05:29.122Z,97589.33
2019-03-10T16:07:59.877Z,97568.01
2019-03-10T16:10:35.589Z,97561.72
2019-03-10T16:13:06.382Z,97560.14
2019-03-10T16:15:39.178Z,97560.80
2019-03-10T16:18:13.480Z,97557.61
2019-03-10T16:20:57.192Z,97554.16
2019-03-10T16:23:32.903Z,97567.41
2019-03-10T16:26:09.434Z,97556.78
2019-03-10T16:28:40.175Z,97562.28
2019-03-10T16:31:10.858Z,97556.66
2019-03-10T16:33:46.143Z,97551.72
2019-03-10T16:36:20.133Z,97546.58
2019-03-10T16:38:58.666Z,97541.45
2019-03-10T16:41:31.445Z,97533.69
2019-03-10T16:44:02.087Z,97516.52
2019-03-10T16:46:33.873Z,97505.40
2019-03-10T16:49:05.778Z,97511.19
2019-03-10T16:51:37.709Z,97511.25
2019-03-10T16:54:16.818Z,97521.91
2019-03-10T16:56:47.737Z,97529.21
2019-03-10T16:59:25.743Z,97531.84
2019-03-10T17:01:56.363Z,97531.45
2019-03-10T17:04:31.443Z,97531.05
2019-03-10T17:07:08.483Z,97531.52
2019-03-10T17:09:44.378Z,97504.58
2019-03-10T17:12:17.123Z,97512.14
2019-03-10T17:14:49.800Z,97499.05
2019-03-10T17:17:23.952Z,97507.44
2019-03-10T17:19:54.654Z,97510.10
2019-03-10T17:22:27.834Z,97507.14
2019-03-10T17:25:02.441Z,97507.14
2019-03-10T17:27:38.512Z,97507.27
2019-03-10T17:30:15.504Z,97505.53
2019-03-10T17:32:48.506Z,97500.59
2019-03-10T17:35:19.612Z,97502.24
2019-03-10T17:37:56.115Z,97499.41
2019-03-10T17:40:29.834Z,97502.11
2019-03-10T17:43:00.558Z,97511.05
2019-03-10T17:45:32.468Z,97508.26
2019-03-10T17:48:04.356Z,97509.70
2019-03-10T17:50:35.104Z,97508.66
2019-03-10T17:53:21.706Z,97496.22
2019-03-10T17:55:57.913Z,97493.36
2019-03-10T17:58:33.758Z,97485.33
2019-03-10T18:01:07.443Z,97482.49
2019-03-10T18:03:39.384Z,97482.62
2019-03-10T18:06:14.646Z,97474.88
2019-03-10T18:08:45.588Z,97471.81
2019-03-10T18:11:23.049Z,97456.14
2019-03-10T18:13:55.629Z,97458.86
2019-03-10T18:16:27.694Z,97464.66
2019-03-10T18:19:00.558Z,97463.33
2019-03-10T18:21:35.977Z,97452.30
2019-03-10T18:24:10.390Z,97429.12
2019-03-10T18:26:42.093Z,97437.98
2019-03-10T18:29:16.213Z,97453.88
2019-03-10T18:31:47.138Z,97462.00
2019-03-10T18:34:18.859Z,97472.44
2019-03-10T18:36:54.940Z,97466.41
2019-03-10T18:39:29.393Z,97467.07
2019-03-10T18:42:06.522Z,97468.06
2019-03-10T18:44:39.661Z,97472.38
2019-03-10T18:47:12.082Z,97472.99
2019-03-10T18:49:45.018Z,97472.09
2019-03-10T18:52:23.528Z,97478.50
2019-03-10T18:54:55.203Z,97484.38
2019-03-10T18:57:30.601Z,97490.27
2019-03-10T19:00:04.488Z,97485.35
2019-03-10T19:02:40.781Z,97480.47
2019-03-10T19:05:16.599Z,97483.65
2019-03-10T19:07:50.455Z,97470.05
2019-03-10T19:10:22.472Z,97458.55
2019-03-10T19:12:59.599Z,97447.15
2019-03-10T19:15:33.608Z,97444.70
2019-03-10T19:18:08.078Z,97454.14
2019-03-10T19:20:42.588Z,97449.63
2019-03-10T19:23:16.503Z,97446.32
2019-03-10T19:25:52.472Z,97458.45
2019-03-10T19:28:23.123Z,97481.63
2019-03-10T19:30:55.004Z,97462.64
2019-03-10T19:33:26.759Z,97467.34
2019-03-10T19:36:01.024Z,97466.84
2019-03-10T19:38:32.704Z,97441.41
2019-03-10T19:41:07.447Z,97420.62
2019-03-10T19:43:41.870Z,97409.77
2019-03-10T19:46:18.380Z,97416.52
2019-03-10T19:48:55.925Z,97414.39
2019-03-10T19:51:29.108Z,97413.22
2019-03-10T19:54:03.410Z,97420.84
2019-03-10T19:56:37.564Z,97413.98
2019-03-10T19:59:09.709Z,97421.41
2019-03-10T20:01:46.868Z,97427.21
2019-03-10T20:04:27.132Z,97424.84
2019-03-10T20:07:07.286Z,97429.27
2019-03-10T20:09:48.282Z,97425.52
2019-03-10T20:12:29.947Z,97420.62
2019-03-10T20:15:05.481Z,97430.91
2019-03-10T20:17:53.484Z,97431.77
2019-03-10T20:20:41.249Z,97418.27
2019-03-10T20:23:17.828Z,97425.53
2019-03-10T20:25:52.184Z,97435.48
2019-03-10T20:28:25.875Z,97418.05
2019-03-10T20:31:00.277Z,97424.14
2019-03-10T20:33:34.079Z,97423.05
2019-03-10T20:36:07.486Z,97423.23
2019-03-10T20:38:43.989Z,97420.72
2019-03-10T20:41:16.114Z,97421.91
2019-03-10T20:44:05.960Z,97432.64
2019-03-10T20:46:39.415Z,97431.16
2019-03-10T20:49:14.533Z,97429.62
2019-03-10T20:52:05.637Z,97439.55
2019-03-10T20:54:38.166Z,97436.39
2019-03-10T20:57:13.354Z,97437.63
2019-03-10T20:59:47.052Z,97431.08
2019-03-10T21:02:23.876Z,97428.16
2019-03-10T21:04:56.613Z,97436.78
2019-03-10T21:07:27.363Z,97438.51
2019-03-10T21:10:01.459Z,97436.14
2019-03-10T21:12:40.623Z,97427.23
2019-03-10T21:15:16.034Z,97436.34
2019-03-10T21:17:51.351Z,97438.70
2019-03-10T21:20:26.063Z,97411.23
2019-03-10T21:22:58.141Z,97412.14
2019-03-10T21:25:31.018Z,97438.45
2019-03-10T21:28:05.107Z,97427.61
2019-03-10T21:30:35.709Z,97435.80
2019-03-10T21:33:06.372Z,97433.89
2019-03-10T21:35:39.677Z,97458.69
2019-03-10T21:38:10.222Z,97437.14
2019-03-10T21:40:43.193Z,97445.77
2019-03-10T21:43:13.769Z,97487.32
2019-03-10T21:45:45.502Z,97462.36
2019-03-10T21:48:16.712Z,97451.86
2019-03-10T21:50:47.403Z,97459.95
2019-03-10T21:53:18.044Z,97458.75
2019-03-10T21:55:48.773Z,97470.67
2019-03-10T21:58:19.273Z,97469.91
2019-03-10T22:00:49.832Z,97459.41
2019-03-10T22:03:20.548Z,97471.59
2019-03-10T22:05:51.044Z,97479.45
2019-03-10T22:08:21.548Z,97470.52
2019-03-10T22:10:52.183Z,97494.42
2019-03-10T22:13:24.231Z,97477.52
2019-03-10T22:15:54.669Z,97501.02
2019-03-10T22:18:25.789Z,97498.11
2019-03-10T22:20:56.391Z,97490.78
2019-03-10T22:23:26.923Z,97480.42
2019-03-10T22:25:57.280Z,97490.03
2019-03-10T22:28:27.681Z,97479.88
2019-03-10T22:30:58.210Z,97506.63
2019-03-10T22:33:29.095Z,97502.86
2019-03-10T22:35:59.575Z,97481.59
2019-03-10T22:38:30.230Z,97498.59
2019-03-10T22:41:01.274Z,97498.68
2019-03-10T22:43:32.340Z,97493.44
2019-03-10T22:46:03.112Z,97498.30
2019-03-10T22:48:33.789Z,97497.80
2019-03-10T22:51:04.412Z,97508.69
2019-03-10T22:53:35.586Z,97516.56
2019-03-10T22:56:06.198Z,97510.88
2019-03-10T22:58:36.852Z,97519.09
2019-03-10T23:01:07.743Z,97509.14
2019-03-10T23:03:38.717Z,97524.70
2019-03-10T23:06:09.450Z,97535.88
2019-03-10T23:08:39.973Z,97521.96
2019-03-10T23:11:10.661Z,97516.55
2019-03-10T23:13:41.267Z,97543.38
2019-03-10T23:16:11.879Z,97545.72
2019-03-10T23:18:42.490Z,97572.58
2019-03-10T23:21:13.013Z,97581.10
2019-03-10T23:23:43.453Z,97583.52
2019-03-10T23:26:14.173Z,97611.81
2019-03-10T23:28:44.609Z,97580.34
2019-03-10T23:31:15.119Z,97627.88
2019-03-10T23:33:45.637Z,97670.62
2019-03-10T23:36:16.193Z,97734.64
2019-03-10T23:38:46.640Z,97792.58
2019-03-10T23:41:17.084Z,97824.46
2019-03-10T23:43:47.649Z,97836.09
2019-03-10T23:46:18.311Z,97870.30
2019-03-10T23:48:48.684Z,97887.81
2019-03-10T23:51:19.128Z,97938.78
2019-03-10T23:53:49.747Z,97971.78
2019-03-10T23:56:20.264Z,97998.80
2019-03-10T23:58:50.707Z,98033.31
